Terminal Aerodrome Forecast
Issued by NWS Lake Charles, LA

Home | Current Version | Previous Version | Text Only | Print | Product List | Glossary On
Versions: 1 2 3 4 5 6 7 8 9 10 11 12 13 14 15 16 17 18 19 20 21
000
FTUS44 KLCH 050846 AAB
TAFARA
TAF AMD
KARA 050846Z 0509/0606 00000KT 3SM MIFG SCT003
      TEMPO 0509/0513 3/4SM BR VV003
     FM051400 VRB04KT P6SM SCT050 SCT130
     FM051700 25005KT 6SM -RA VCTS SCT018 BKN050CB
     FM052300 VRB03KT P6SM SCT035 SCT110=

USA.gov is the U.S. government's official web portal to all federal, state and local government web resources and services.